Modesto City Co-Harry Sham Field


Codes: KMOD/MOD
Name: Modesto City Co-Harry Sham Field
City: Modesto
Country: United States
Elevation: 97 ft.
Wikipedia:

Photos at Modesto City Co-Harry Sham Field


   Photos courtesy of SpottingLog. You can add your own sightings and photos by signing up for a free trial today.



No photos found.

Weather at Modesto City Co-Harry Sham Field


Time (UTC)DescriptionTempratureWindCloud coverageVisibilityPressureHumidity
21-Feb-2024 03:00Light Rain11°C7 mph, E100%10000m1017hPa93%
21-Feb-2024 06:00Light Rain11°C4 mph, SE100%10000m1017hPa94%
21-Feb-2024 09:00Light Rain9°C4 mph, SE100%10000m1018hPa96%
21-Feb-2024 12:00Light Rain8°C2 mph, SE61%10000m1019hPa96%
21-Feb-2024 15:00Light Rain7°C2 mph, NE12%10000m1020hPa94%
21-Feb-2024 18:00Clear Sky13°C2 mph, SW8%10000m1022hPa80%
21-Feb-2024 21:00Light Rain16°C2 mph, NW7%10000m1021hPa62%
22-Feb-2024 00:00Light Rain16°C4 mph, N9%10000m1021hPa58%
22-Feb-2024 03:00Light Rain11°C4 mph, N75%10000m1022hPa78%
22-Feb-2024 06:00Overcast Clouds9°C7 mph, NW87%10000m1023hPa87%
22-Feb-2024 09:00Broken Clouds8°C4 mph, N52%10000m1024hPa91%
22-Feb-2024 12:00Scattered Clouds7°C4 mph, NW35%10000m1023hPa91%
22-Feb-2024 15:00Few Clouds6°C4 mph, NW23%10000m1024hPa92%
22-Feb-2024 18:00Few Clouds12°C4 mph, N12%10000m1026hPa75%
22-Feb-2024 21:00Clear Sky16°C4 mph, N0%10000m1025hPa60%
23-Feb-2024 00:00Clear Sky16°C4 mph, N0%10000m1023hPa57%
23-Feb-2024 03:00Clear Sky11°C4 mph, NW0%10000m1023hPa77%
23-Feb-2024 06:00Clear Sky9°C4 mph, NW1%10000m1024hPa86%
23-Feb-2024 09:00Broken Clouds8°C4 mph, NW72%10000m1023hPa89%
23-Feb-2024 12:00Broken Clouds7°C4 mph, N72%10000m1022hPa92%
23-Feb-2024 15:00Overcast Clouds7°C4 mph, NW100%10000m1022hPa93%
23-Feb-2024 18:00Overcast Clouds12°C4 mph, NW100%10000m1021hPa73%
23-Feb-2024 21:00Broken Clouds16°C4 mph, N80%10000m1020hPa60%
24-Feb-2024 00:00Broken Clouds17°C2 mph, NW83%10000m1018hPa59%
24-Feb-2024 03:00Scattered Clouds11°C4 mph, NW39%10000m1018hPa78%
24-Feb-2024 06:00Scattered Clouds10°C4 mph, NW34%10000m1018hPa85%
24-Feb-2024 09:00Broken Clouds9°C4 mph, NW66%10000m1018hPa87%
24-Feb-2024 12:00Broken Clouds8°C4 mph, NW83%10000m1018hPa86%
24-Feb-2024 15:00Overcast Clouds7°C4 mph, NW94%10000m1018hPa88%
24-Feb-2024 18:00Overcast Clouds13°C2 mph, NW87%10000m1018hPa68%
24-Feb-2024 21:00Overcast Clouds18°C0 mph, NW99%10000m1016hPa56%
25-Feb-2024 00:00Overcast Clouds19°C4 mph, SE98%10000m1015hPa57%
25-Feb-2024 03:00Overcast Clouds14°C2 mph, SE96%10000m1015hPa72%
25-Feb-2024 06:00Broken Clouds12°C0 mph, N77%10000m1016hPa80%
25-Feb-2024 09:00Broken Clouds10°C0 mph, N64%10000m1016hPa84%
25-Feb-2024 12:00Broken Clouds10°C0 mph, N63%10000m1016hPa86%
25-Feb-2024 15:00Broken Clouds9°C4 mph, SE77%10000m1016hPa88%
25-Feb-2024 18:00Broken Clouds15°C4 mph, SE83%10000m1017hPa71%
25-Feb-2024 21:00Overcast Clouds18°C7 mph, S89%10000m1016hPa59%
26-Feb-2024 00:00Light Rain17°C2 mph, SW95%10000m1015hPa65%